YTEF/TEF METAR and TAF weather

Enter ICAO airport designator
Station Type Date Time Source
YTEF METAR 2022/08/10 05:29 UTC NOAA

YTEF 100529Z AUTO 10017KT //// // SCT007 BKN072 OVC089 09/08 Q1019


Station Type Date Time Source
YTEF Decoded METAR 2022/08/10 05:29 UTC NOAA

Station name not available
Aug 10, 2022 - 01:29 AM EDT / 2022.08.10 0529 UTC
Wind: from the E (100 degrees) at 20 MPH (17 KT):0
Sky conditions: overcast
Temperature: 48 F (9 C)
Dew Point: 46 F (8 C)
Relative Humidity: 93%
Pressure (altimeter): 30.09 in. Hg (1019 hPa)
ob: YTEF 100529Z AUTO 10017KT //// // SCT007 BKN072 OVC089 09/08 Q1019
cycle: 5

Station Type Date Time Source
YTEF TAF 2017/06/24 02:03 UTC NOAA

TAF TAF YTEF 240051Z 2402/2414 12005KT CAVOK
FM240500 33005KT 9999 -SHRA SCT060 BKN100

Example: see airport list